메인 페이지
METAR-TAF:

METAR-TAF

공항 :

새스커툰, 서스캐처원, 캐나다

위도: 52-10N, 경도: 106-41W, 고도: 501m

현재 날씨관측

예보는 58분 전, 04:00시(UTC)에 발표되었습니다.
8kt
온도 0°C
습도 86%
기압 1016 hPa
시정: 24.1km
고도 7500ft 상공 구름 보통
고도 14000ft 상공 구름 보통
고도 25000ft 상공 구름 많음

METAR: CYXE 160400Z 28008KT 15SM SCT075 SCT140 BKN250 00/M02 A3001 RMK AC3AC1CI1 SLP188

시각: 22:58 (04:58 UTC)

예보

예보는 3 시간 35분 전, 01:23시(UTC)에 발표되었습니다.
예보 대상 시간: 16일 01시부터 16일 24시까지 (UTC)
서북서10kt
시정: 10km
고도 12000ft 상공 구름 조금
고도 20000ft 상공 구름 보통
16일 1000시부터 (UTC)
북서6kt
시정: 10km
고도 400ft 상공 구름 조금
고도 3000ft 상공 구름 보통
확률 30%
16일 10시부터 16일 14시까지 (UTC)
시정: 1.6km
박무
16일 1400시부터 (UTC)
6kt
시정: 10km
고도 6000ft 상공 구름 보통
전환 중
16일 18시부터 16일 20시까지 (UTC)
북서10kt, 순간 최대 풍속 20kt

TAF: CYXE 160123Z 1601/1624 30010KT P6SM FEW120 SCT200 FM161000 32006KT P6SM FEW004 SCT030 PROB30 1610/1614 1SM BR FM161400 28006KT P6SM SCT060 BECMG 1618/1620 31010G20KT RMK NXT FCST BY 160600Z

4,000개 이상의 공항 관측 자료 및 예보 (METAR 및 TAF 보고).

지도상에서 검색 가능한 기상관측소가 노란 점과 빨간 점으로 표시되어 있습니다.

기상관측소 명을 보려면 표시 위로 마우스를 이동하세요.

날씨 관측과 예보를 보려면 클릭하세요.

지도 변경 : 확대하려면 엑스 표시가 있는 녹색 버튼, 축소하려면 빼기 표시가 있는 녹색 버튼, 다음 페이지의 지도를 보려면 녹색 화살표를 클릭하세요.


METAR-TAF: